sensor_id;sensor_type;location;lat;lon;timestamp;pressure;altitude;pressure_sealevel;temperature;humidity
71805;BME280;59654;52.216;5.616;2022-12-01T00:00:09;102609.75;;;4.21;97.09
71805;BME280;59654;52.216;5.616;2022-12-01T00:01:02;102609.78;;;4.22;96.67
71805;BME280;59654;52.216;5.616;2022-12-01T00:01:35;102606.22;;;4.20;97.05
71805;BME280;59654;52.216;5.616;2022-12-01T00:02:29;102611.50;;;4.20;96.97
71805;BME280;59654;52.216;5.616;2022-12-01T00:03:12;102609.75;;;4.21;97.31
71805;BME280;59654;52.216;5.616;2022-12-01T00:04:06;102601.75;;;4.16;96.94
71805;BME280;59654;52.216;5.616;2022-12-01T00:04:37;102602.69;;;4.20;96.58
71805;BME280;59654;52.216;5.616;2022-12-01T00:05:32;102604.47;;;4.21;96.98
71805;BME280;59654;52.216;5.616;2022-12-01T00:06:14;102597.41;;;4.20;96.94
71805;BME280;59654;52.216;5.616;2022-12-01T00:06:58;102601.94;;;4.25;96.83
71805;BME280;59654;52.216;5.616;2022-12-01T00:07:34;102610.75;;;4.27;96.97
71805;BME280;59654;52.216;5.616;2022-12-01T00:08:08;102602.88;;;4.29;96.76
71805;BME280;59654;52.216;5.616;2022-12-01T00:09:09;102600.16;;;4.26;96.21
71805;BME280;59654;52.216;5.616;2022-12-01T00:09:59;102599.31;;;4.27;96.07
71805;BME280;59654;52.216;5.616;2022-12-01T00:11:09;102600.16;;;4.26;96.77
71805;BME280;59654;52.216;5.616;2022-12-01T00:11:51;102596.66;;;4.25;96.50
71805;BME280;59654;52.216;5.616;2022-12-01T00:12:24;102600.19;;;4.27;96.64
71805;BME280;59654;52.216;5.616;2022-12-01T00:13:00;102594.94;;;4.29;96.85
71805;BME280;59654;52.216;5.616;2022-12-01T00:14:07;102607.25;;;4.28;96.22
71805;BME280;59654;52.216;5.616;2022-12-01T00:14:58;102592.31;;;4.29;95.84
71805;BME280;59654;52.216;5.616;2022-12-01T00:15:47;102601.03;;;4.25;94.98
71805;BME280;59654;52.216;5.616;2022-12-01T00:16:56;102598.25;;;4.17;95.32
71805;BME280;59654;52.216;5.616;2022-12-01T00:17:43;102598.22;;;4.14;95.71
71805;BME280;59654;52.216;5.616;2022-12-01T00:18:35;102591.16;;;4.15;96.28
71805;BME280;59654;52.216;5.616;2022-12-01T00:19:09;102596.41;;;4.10;96.42
71805;BME280;59654;52.216;5.616;2022-12-01T00:19:43;102598.13;;;4.08;95.96
71805;BME280;59654;52.216;5.616;2022-12-01T00:20:39;102600.72;;;4.07;96.77
71805;BME280;59654;52.216;5.616;2022-12-01T00:21:33;102598.00;;;4.02;96.22
71805;BME280;59654;52.216;5.616;2022-12-01T00:22:27;102604.13;;;4.01;96.69
71805;BME280;59654;52.216;5.616;2022-12-01T00:23:07;102597.13;;;4.01;96.78
71805;BME280;59654;52.216;5.616;2022-12-01T00:23:58;102595.41;;;4.03;96.99
71805;BME280;59654;52.216;5.616;2022-12-01T00:24:34;102598.00;;;4.02;96.93
71805;BME280;59654;52.216;5.616;2022-12-01T00:25:06;102595.34;;;4.00;96.83
71805;BME280;59654;52.216;5.616;2022-12-01T00:25:41;102602.38;;;4.00;96.16
71805;BME280;59654;52.216;5.616;2022-12-01T00:26:22;102599.75;;;4.01;96.70
71805;BME280;59654;52.216;5.616;2022-12-01T00:26:53;102600.66;;;4.03;96.38
71805;BME280;59654;52.216;5.616;2022-12-01T00:27:36;102595.44;;;4.07;96.77
71805;BME280;59654;52.216;5.616;2022-12-01T00:28:07;102597.22;;;4.08;96.48
71805;BME280;59654;52.216;5.616;2022-12-01T00:29:05;102598.19;;;4.13;96.02
71805;BME280;59654;52.216;5.616;2022-12-01T00:30:08;102602.56;;;4.11;96.11
71805;BME280;59654;52.216;5.616;2022-12-01T00:30:40;102599.97;;;4.14;95.79
71805;BME280;59654;52.216;5.616;2022-12-01T00:31:26;102599.94;;;4.12;95.70
71805;BME280;59654;52.216;5.616;2022-12-01T00:32:10;102594.69;;;4.12;95.51
71805;BME280;59654;52.216;5.616;2022-12-01T00:32:54;102600.91;;;4.17;95.80
71805;BME280;59654;52.216;5.616;2022-12-01T00:33:28;102587.72;;;4.19;96.02
71805;BME280;59654;52.216;5.616;2022-12-01T00:34:01;102597.41;;;4.18;95.46
71805;BME280;59654;52.216;5.616;2022-12-01T00:34:59;102593.88;;;4.18;96.02
71805;BME280;59654;52.216;5.616;2022-12-01T00:35:38;102594.75;;;4.18;95.76
71805;BME280;59654;52.216;5.616;2022-12-01T00:36:19;102600.00;;;4.17;95.80
71805;BME280;59654;52.216;5.616;2022-12-01T00:36:56;102596.47;;;4.16;95.62
71805;BME280;59654;52.216;5.616;2022-12-01T00:37:53;102595.56;;;4.13;94.84
71805;BME280;59654;52.216;5.616;2022-12-01T00:38:44;102594.50;;;4.03;94.96
71805;BME280;59654;52.216;5.616;2022-12-01T00:39:33;102604.00;;;3.92;95.36
71805;BME280;59654;52.216;5.616;2022-12-01T00:40:11;102605.53;;;3.79;96.22
71805;BME280;59654;52.216;5.616;2022-12-01T00:40:42;102602.78;;;3.73;96.51
71805;BME280;59654;52.216;5.616;2022-12-01T00:41:19;102602.72;;;3.70;96.86
71805;BME280;59654;52.216;5.616;2022-12-01T00:42:08;102602.59;;;3.62;97.14
71805;BME280;59654;52.216;5.616;2022-12-01T00:42:42;102603.41;;;3.60;98.09
71805;BME280;59654;52.216;5.616;2022-12-01T00:43:22;102601.63;;;3.59;98.13
71805;BME280;59654;52.216;5.616;2022-12-01T00:44:03;102599.78;;;3.55;98.66
71805;BME280;59654;52.216;5.616;2022-12-01T00:44:52;102597.09;;;3.52;98.67
71805;BME280;59654;52.216;5.616;2022-12-01T00:46:08;102597.03;;;3.47;99.12
71805;BME280;59654;52.216;5.616;2022-12-01T00:46:55;102596.94;;;3.43;99.44
71805;BME280;59654;52.216;5.616;2022-12-01T00:47:37;102604.84;;;3.43;99.61
71805;BME280;59654;52.216;5.616;2022-12-01T00:48:32;102598.66;;;3.41;100.00
71805;BME280;59654;52.216;5.616;2022-12-01T00:49:05;102603.84;;;3.38;99.56
71805;BME280;59654;52.216;5.616;2022-12-01T00:49:45;102607.28;;;3.32;100.00
71805;BME280;59654;52.216;5.616;2022-12-01T00:50:25;102615.88;;;3.23;100.00
71805;BME280;59654;52.216;5.616;2022-12-01T00:50:56;102604.31;;;3.15;100.00
71805;BME280;59654;52.216;5.616;2022-12-01T00:51:50;102603.31;;;3.10;100.00
71805;BME280;59654;52.216;5.616;2022-12-01T00:52:47;102602.31;;;3.05;100.00
71805;BME280;59654;52.216;5.616;2022-12-01T00:53:28;102602.28;;;3.04;100.00
71805;BME280;59654;52.216;5.616;2022-12-01T00:54:07;102600.50;;;3.03;100.00
71805;BME280;59654;52.216;5.616;2022-12-01T00:54:45;102603.16;;;3.04;100.00
71805;BME280;59654;52.216;5.616;2022-12-01T00:55:39;102604.06;;;3.05;100.00
71805;BME280;59654;52.216;5.616;2022-12-01T00:56:36;102605.91;;;3.09;100.00
71805;BME280;59654;52.216;5.616;2022-12-01T00:57:13;102597.16;;;3.10;100.00
71805;BME280;59654;52.216;5.616;2022-12-01T00:58:10;102605.13;;;3.13;100.00
71805;BME280;59654;52.216;5.616;2022-12-01T00:58:57;102601.63;;;3.14;100.00
71805;BME280;59654;52.216;5.616;2022-12-01T00:59:57;102604.22;;;3.12;100.00
71805;BME280;59654;52.216;5.616;2022-12-01T01:00:55;102599.69;;;3.05;100.00
71805;BME280;59654;52.216;5.616;2022-12-01T01:01:32;102606.63;;;3.02;100.00
71805;BME280;59654;52.216;5.616;2022-12-01T01:02:35;102599.56;;;2.99;100.00
71805;BME280;59654;52.216;5.616;2022-12-01T01:03:32;102610.94;;;2.96;100.00
71805;BME280;59654;52.216;5.616;2022-12-01T01:04:30;102611.72;;;2.92;100.00
71805;BME280;59654;52.216;5.616;2022-12-01T01:05:08;102608.03;;;2.87;100.00
71805;BME280;59654;52.216;5.616;2022-12-01T01:05:45;102604.50;;;2.87;100.00
71805;BME280;59654;52.216;5.616;2022-12-01T01:06:42;102611.56;;;2.88;100.00
71805;BME280;59654;52.216;5.616;2022-12-01T01:07:36;102611.66;;;2.91;100.00
71805;BME280;59654;52.216;5.616;2022-12-01T01:08:33;102610.78;;;2.90;100.00
71805;BME280;59654;52.216;5.616;2022-12-01T01:09:28;102621.22;;;2.87;100.00
71805;BME280;59654;52.216;5.616;2022-12-01T01:10:00;102615.94;;;2.87;100.00
71805;BME280;59654;52.216;5.616;2022-12-01T01:11:02;102619.44;;;2.86;100.00
71805;BME280;59654;52.216;5.616;2022-12-01T01:12:03;102610.69;;;2.87;100.00
71805;BME280;59654;52.216;5.616;2022-12-01T01:12:40;102614.19;;;2.88;100.00
71805;BME280;59654;52.216;5.616;2022-12-01T01:13:32;102614.13;;;2.83;100.00
71805;BME280;59654;52.216;5.616;2022-12-01T01:14:08;102615.78;;;2.80;100.00
71805;BME280;59654;52.216;5.616;2022-12-01T01:14:42;102608.75;;;2.79;100.00
71805;BME280;59654;52.216;5.616;2022-12-01T01:15:37;102621.94;;;2.80;100.00
71805;BME280;59654;52.216;5.616;2022-12-01T01:16:34;102616.75;;;2.85;100.00
71805;BME280;59654;52.216;5.616;2022-12-01T01:17:43;102614.31;;;2.91;100.00
71805;BME280;59654;52.216;5.616;2022-12-01T01:19:00;102617.88;;;2.93;100.00
71805;BME280;59654;52.216;5.616;2022-12-01T01:19:34;102620.56;;;2.96;100.00
71805;BME280;59654;52.216;5.616;2022-12-01T01:20:18;102617.06;;;2.95;100.00
71805;BME280;59654;52.216;5.616;2022-12-01T01:21:03;102614.41;;;2.95;100.00
71805;BME280;59654;52.216;5.616;2022-12-01T01:21:44;102617.88;;;2.93;100.00
71805;BME280;59654;52.216;5.616;2022-12-01T01:22:16;102626.66;;;2.93;100.00
71805;BME280;59654;52.216;5.616;2022-12-01T01:22:48;102632.81;;;2.94;100.00
71805;BME280;59654;52.216;5.616;2022-12-01T01:23:22;102621.44;;;2.95;100.00
71805;BME280;59654;52.216;5.616;2022-12-01T01:23:54;102622.25;;;2.92;100.00
71805;BME280;59654;52.216;5.616;2022-12-01T01:24:52;102622.25;;;2.92;100.00
71805;BME280;59654;52.216;5.616;2022-12-01T01:25:46;102624.81;;;2.89;100.00
71805;BME280;59654;52.216;5.616;2022-12-01T01:26:40;102624.81;;;2.89;100.00
71805;BME280;59654;52.216;5.616;2022-12-01T01:27:34;102629.13;;;2.87;100.00
71805;BME280;59654;52.216;5.616;2022-12-01T01:28:14;102625.59;;;2.87;100.00
71805;BME280;59654;52.216;5.616;2022-12-01T01:29:08;102631.00;;;2.91;100.00
71805;BME280;59654;52.216;5.616;2022-12-01T01:30:01;102630.25;;;2.97;100.00
71805;BME280;59654;52.216;5.616;2022-12-01T01:30:40;102621.56;;;3.03;100.00
71805;BME280;59654;52.216;5.616;2022-12-01T01:31:21;102631.28;;;3.05;100.00
71805;BME280;59654;52.216;5.616;2022-12-01T01:32:14;102624.28;;;3.06;100.00
71805;BME280;59654;52.216;5.616;2022-12-01T01:33:18;102621.72;;;3.09;100.00
71805;BME280;59654;52.216;5.616;2022-12-01T01:34:07;102626.09;;;3.08;100.00
71805;BME280;59654;52.216;5.616;2022-12-01T01:35:01;102634.91;;;3.09;100.00
71805;BME280;59654;52.216;5.616;2022-12-01T01:36:02;102633.09;;;3.06;100.00
71805;BME280;59654;52.216;5.616;2022-12-01T01:36:48;102627.81;;;3.06;100.00
71805;BME280;59654;52.216;5.616;2022-12-01T01:37:43;102632.22;;;3.07;100.00
71805;BME280;59654;52.216;5.616;2022-12-01T01:38:28;102621.78;;;3.12;100.00
71805;BME280;59654;52.216;5.616;2022-12-01T01:39:02;102629.69;;;3.12;100.00
71805;BME280;59654;52.216;5.616;2022-12-01T01:39:59;102628.09;;;3.20;100.00
71805;BME280;59654;52.216;5.616;2022-12-01T01:40:33;102626.38;;;3.22;100.00
71805;BME280;59654;52.216;5.616;2022-12-01T01:41:07;102626.34;;;3.20;100.00
71805;BME280;59654;52.216;5.616;2022-12-01T01:41:50;102627.34;;;3.25;100.00
71805;BME280;59654;52.216;5.616;2022-12-01T01:42:30;102627.41;;;3.28;100.00
71805;BME280;59654;52.216;5.616;2022-12-01T01:43:14;102629.25;;;3.34;100.00
71805;BME280;59654;52.216;5.616;2022-12-01T01:44:57;102617.09;;;3.41;100.00
71805;BME280;59654;52.216;5.616;2022-12-01T01:45:58;102619.91;;;3.50;100.00
71805;BME280;59654;52.216;5.616;2022-12-01T01:47:21;102624.38;;;3.54;100.00
71805;BME280;59654;52.216;5.616;2022-12-01T01:48:16;102624.44;;;3.57;100.00
71805;BME280;59654;52.216;5.616;2022-12-01T01:49:02;102624.47;;;3.58;100.00
71805;BME280;59654;52.216;5.616;2022-12-01T01:49:47;102627.13;;;3.58;100.00
71805;BME280;59654;52.216;5.616;2022-12-01T01:50:26;102627.16;;;3.60;100.00
71805;BME280;59654;52.216;5.616;2022-12-01T01:51:01;102630.66;;;3.59;100.00
71805;BME280;59654;52.216;5.616;2022-12-01T01:51:45;102624.44;;;3.57;100.00
71805;BME280;59654;52.216;5.616;2022-12-01T01:53:06;102625.31;;;3.56;100.00
71805;BME280;59654;52.216;5.616;2022-12-01T01:54:08;102629.59;;;3.51;100.00
71805;BME280;59654;52.216;5.616;2022-12-01T01:54:47;102625.13;;;3.45;100.00
71805;BME280;59654;52.216;5.616;2022-12-01T01:55:24;102622.41;;;3.42;100.00
71805;BME280;59654;52.216;5.616;2022-12-01T01:55:58;102629.38;;;3.39;100.00
71805;BME280;59654;52.216;5.616;2022-12-01T01:56:38;102621.34;;;3.32;100.00
71805;BME280;59654;52.216;5.616;2022-12-01T01:57:33;102630.03;;;3.28;100.00
71805;BME280;59654;52.216;5.616;2022-12-01T01:58:12;102626.53;;;3.28;100.00
71805;BME280;59654;52.216;5.616;2022-12-01T01:58:43;102635.31;;;3.28;100.00
71805;BME280;59654;52.216;5.616;2022-12-01T01:59:35;102634.47;;;3.29;100.00
71805;BME280;59654;52.216;5.616;2022-12-01T02:00:15;102628.34;;;3.30;100.00
71805;BME280;59654;52.216;5.616;2022-12-01T02:00:54;102635.31;;;3.28;100.00
71805;BME280;59654;52.216;5.616;2022-12-01T02:01:27;102630.88;;;3.26;100.00
71805;BME280;59654;52.216;5.616;2022-12-01T02:02:10;102631.66;;;3.22;100.00
71805;BME280;59654;52.216;5.616;2022-12-01T02:02:46;102639.50;;;3.19;100.00
71805;BME280;59654;52.216;5.616;2022-12-01T02:03:41;102633.19;;;3.11;100.00
71805;BME280;59654;52.216;5.616;2022-12-01T02:04:23;102631.28;;;3.05;100.00
71805;BME280;59654;52.216;5.616;2022-12-01T02:05:18;102640.94;;;3.05;100.00
71805;BME280;59654;52.216;5.616;2022-12-01T02:06:17;102630.41;;;3.05;100.00
71805;BME280;59654;52.216;5.616;2022-12-01T02:06:48;102634.81;;;3.06;100.00
71805;BME280;59654;52.216;5.616;2022-12-01T02:07:25;102632.28;;;3.10;100.00
71805;BME280;59654;52.216;5.616;2022-12-01T02:08:03;102642.91;;;3.13;100.00
71805;BME280;59654;52.216;5.616;2022-12-01T02:08:41;102636.78;;;3.14;100.00
71805;BME280;59654;52.216;5.616;2022-12-01T02:09:15;102632.38;;;3.13;100.00
71805;BME280;59654;52.216;5.616;2022-12-01T02:09:56;102633.22;;;3.12;100.00
71805;BME280;59654;52.216;5.616;2022-12-01T02:12:17;102622.81;;;3.20;100.00
71805;BME280;59654;52.216;5.616;2022-12-01T02:14:23;102627.47;;;3.31;100.00
71805;BME280;59654;52.216;5.616;2022-12-01T02:16:53;102623.34;;;3.44;100.00
71805;BME280;59654;52.216;5.616;2022-12-01T02:18:21;102628.03;;;3.60;100.00
71805;BME280;59654;52.216;5.616;2022-12-01T02:23:56;102619.56;;;3.77;100.00
71805;BME280;59654;52.216;5.616;2022-12-01T02:26:13;102620.69;;;3.91;99.95
71805;BME280;59654;52.216;5.616;2022-12-01T02:33:56;102616.50;;;4.03;98.36
71805;BME280;59654;52.216;5.616;2022-12-01T02:36:53;102612.94;;;4.01;98.05
71805;BME280;59654;52.216;5.616;2022-12-01T02:42:56;102613.94;;;4.07;98.63
71805;BME280;59654;52.216;5.616;2022-12-01T02:43:44;102612.28;;;4.15;97.55
71805;BME280;59654;52.216;5.616;2022-12-01T02:44:54;102615.72;;;4.09;97.13
71805;BME280;59654;52.216;5.616;2022-12-01T02:46:59;102615.59;;;4.01;96.61
71805;BME280;59654;52.216;5.616;2022-12-01T02:47:56;102612.88;;;3.98;97.40
71805;BME280;59654;52.216;5.616;2022-12-01T02:49:29;102610.22;;;3.95;97.58
71805;BME280;59654;52.216;5.616;2022-12-01T02:50:27;102611.13;;;3.96;98.14
71805;BME280;59654;52.216;5.616;2022-12-01T02:51:21;102616.31;;;3.91;97.66
71805;BME280;59654;52.216;5.616;2022-12-01T02:52:10;102616.38;;;3.94;98.01
71805;BME280;59654;52.216;5.616;2022-12-01T02:53:02;102619.81;;;3.90;97.75
71805;BME280;59654;52.216;5.616;2022-12-01T02:54:17;102616.25;;;3.88;98.03
71805;BME280;59654;52.216;5.616;2022-12-01T02:54:58;102626.78;;;3.88;98.43
71805;BME280;59654;52.216;5.616;2022-12-01T02:55:52;102609.25;;;3.90;98.42
71805;BME280;59654;52.216;5.616;2022-12-01T02:56:30;102628.59;;;3.91;98.25
71805;BME280;59654;52.216;5.616;2022-12-01T02:57:30;102625.97;;;3.91;98.24
71805;BME280;59654;52.216;5.616;2022-12-01T02:58:01;102615.47;;;3.94;98.55
71805;BME280;59654;52.216;5.616;2022-12-01T02:58:44;102621.56;;;3.91;97.94
71805;BME280;59654;52.216;5.616;2022-12-01T02:59:22;102625.03;;;3.89;98.05
71805;BME280;59654;52.216;5.616;2022-12-01T03:00:01;102632.91;;;3.86;98.39
71805;BME280;59654;52.216;5.616;2022-12-01T03:00:40;102621.41;;;3.82;98.43
71805;BME280;59654;52.216;5.616;2022-12-01T03:02:32;102623.16;;;3.80;98.40
71805;BME280;59654;52.216;5.616;2022-12-01T03:03:53;102620.44;;;3.77;98.30
71805;BME280;59654;52.216;5.616;2022-12-01T03:05:17;102621.38;;;3.79;98.95
71805;BME280;59654;52.216;5.616;2022-12-01T03:11:16;102624.13;;;3.87;98.62
71805;BME280;59654;52.216;5.616;2022-12-01T03:13:46;102609.31;;;3.93;98.41
71805;BME280;59654;52.216;5.616;2022-12-01T03:17:32;102614.66;;;3.99;97.94
71805;BME280;59654;52.216;5.616;2022-12-01T03:18:51;102613.78;;;3.97;97.69
71805;BME280;59654;52.216;5.616;2022-12-01T03:19:44;102611.13;;;3.96;97.50
71805;BME280;59654;52.216;5.616;2022-12-01T03:20:39;102615.53;;;3.97;97.52
71805;BME280;59654;52.216;5.616;2022-12-01T03:23:00;102616.44;;;4.00;97.44
71805;BME280;59654;52.216;5.616;2022-12-01T03:24:09;102614.69;;;4.01;97.05
71805;BME280;59654;52.216;5.616;2022-12-01T03:24:46;102612.03;;;3.99;97.14
71805;BME280;59654;52.216;5.616;2022-12-01T03:25:27;102620.81;;;3.98;97.20
71805;BME280;59654;52.216;5.616;2022-12-01T03:26:09;102616.41;;;3.97;97.02
71805;BME280;59654;52.216;5.616;2022-12-01T03:26:59;102616.41;;;3.97;97.04
71805;BME280;59654;52.216;5.616;2022-12-01T03:27:43;102612.91;;;4.00;97.53
71805;BME280;59654;52.216;5.616;2022-12-01T03:28:28;102621.78;;;4.03;97.73
71805;BME280;59654;52.216;5.616;2022-12-01T03:29:11;102619.16;;;4.03;97.61
71805;BME280;59654;52.216;5.616;2022-12-01T03:30:16;102619.09;;;4.00;97.49
71805;BME280;59654;52.216;5.616;2022-12-01T03:31:09;102616.41;;;3.99;97.55
71805;BME280;59654;52.216;5.616;2022-12-01T03:31:55;102614.66;;;3.99;97.22
71805;BME280;59654;52.216;5.616;2022-12-01T03:32:56;102620.91;;;4.03;97.76
71805;BME280;59654;52.216;5.616;2022-12-01T03:34:40;102618.31;;;4.06;97.30
71805;BME280;59654;52.216;5.616;2022-12-01T03:35:21;102613.00;;;4.05;96.99
71805;BME280;59654;52.216;5.616;2022-12-01T03:36:34;102620.09;;;4.07;96.95
71805;BME280;59654;52.216;5.616;2022-12-01T03:37:24;102620.97;;;4.08;96.96
71805;BME280;59654;52.216;5.616;2022-12-01T03:38:35;102628.06;;;4.10;96.49
71805;BME280;59654;52.216;5.616;2022-12-01T03:39:28;102617.53;;;4.12;96.09
71805;BME280;59654;52.216;5.616;2022-12-01T03:40:28;102617.44;;;4.06;96.32
71805;BME280;59654;52.216;5.616;2022-12-01T03:41:23;102622.72;;;4.07;96.42
71805;BME280;59654;52.216;5.616;2022-12-01T03:43:19;102621.69;;;3.97;96.57
71805;BME280;59654;52.216;5.616;2022-12-01T03:44:20;102616.41;;;3.99;97.12
71805;BME280;59654;52.216;5.616;2022-12-01T03:45:02;102613.78;;;3.97;97.00
71805;BME280;59654;52.216;5.616;2022-12-01T03:46:37;102616.41;;;3.97;97.39
71805;BME280;59654;52.216;5.616;2022-12-01T03:47:26;102612.88;;;3.95;96.74
71805;BME280;59654;52.216;5.616;2022-12-01T03:48:24;102616.28;;;3.90;96.98
71805;BME280;59654;52.216;5.616;2022-12-01T03:49:03;102610.06;;;3.88;97.45
71805;BME280;59654;52.216;5.616;2022-12-01T03:49:39;102612.75;;;3.89;97.11
71805;BME280;59654;52.216;5.616;2022-12-01T03:51:42;102611.81;;;3.87;97.67
71805;BME280;59654;52.216;5.616;2022-12-01T03:52:56;102622.38;;;3.87;97.39
71805;BME280;59654;52.216;5.616;2022-12-01T03:55:55;102617.28;;;3.96;96.11
71805;BME280;59654;52.216;5.616;2022-12-01T03:56:51;102620.81;;;3.97;95.75
71805;BME280;59654;52.216;5.616;2022-12-01T03:58:12;102623.28;;;3.89;95.98
71805;BME280;59654;52.216;5.616;2022-12-01T03:58:56;102617.91;;;3.82;97.30
71805;BME280;59654;52.216;5.616;2022-12-01T03:59:32;102620.50;;;3.80;97.57
71805;BME280;59654;52.216;5.616;2022-12-01T04:00:26;102624.00;;;3.79;97.31
71805;BME280;59654;52.216;5.616;2022-12-01T04:01:02;102627.47;;;3.77;96.98
71805;BME280;59654;52.216;5.616;2022-12-01T04:01:38;102626.66;;;3.79;97.71
71805;BME280;59654;52.216;5.616;2022-12-01T04:02:26;102628.44;;;3.83;97.54
71805;BME280;59654;52.216;5.616;2022-12-01T04:03:36;102627.72;;;3.90;97.32
71805;BME280;59654;52.216;5.616;2022-12-01T04:04:28;102619.00;;;3.94;97.38
71805;BME280;59654;52.216;5.616;2022-12-01T04:04:59;102620.81;;;3.98;97.03
71805;BME280;59654;52.216;5.616;2022-12-01T04:06:10;102626.13;;;4.00;97.05
71805;BME280;59654;52.216;5.616;2022-12-01T04:06:47;102623.53;;;4.03;97.10
71805;BME280;59654;52.216;5.616;2022-12-01T04:07:22;102624.44;;;4.05;96.92
71805;BME280;59654;52.216;5.616;2022-12-01T04:07:56;102624.44;;;4.05;96.38
71805;BME280;59654;52.216;5.616;2022-12-01T04:08:30;102620.91;;;4.03;96.53
71805;BME280;59654;52.216;5.616;2022-12-01T04:09:15;102620.03;;;4.04;96.36
71805;BME280;59654;52.216;5.616;2022-12-01T04:09:58;102619.16;;;4.03;96.35
71805;BME280;59654;52.216;5.616;2022-12-01T04:10:29;102619.16;;;4.03;96.31
71805;BME280;59654;52.216;5.616;2022-12-01T04:11:12;102616.50;;;4.03;96.39
71805;BME280;59654;52.216;5.616;2022-12-01T04:12:22;102624.47;;;4.07;96.48
71805;BME280;59654;52.216;5.616;2022-12-01T04:13:04;102625.41;;;4.09;96.62
71805;BME280;59654;52.216;5.616;2022-12-01T04:13:59;102628.03;;;4.09;97.27
71805;BME280;59654;52.216;5.616;2022-12-01T04:14:37;102623.72;;;4.15;96.67
71805;BME280;59654;52.216;5.616;2022-12-01T04:15:12;102625.53;;;4.18;96.59
71805;BME280;59654;52.216;5.616;2022-12-01T04:15:58;102624.72;;;4.20;96.62
71805;BME280;59654;52.216;5.616;2022-12-01T04:16:29;102627.38;;;4.22;96.60
71805;BME280;59654;52.216;5.616;2022-12-01T04:17:06;102621.22;;;4.21;96.02
71805;BME280;59654;52.216;5.616;2022-12-01T04:17:42;102615.06;;;4.22;95.84
71805;BME280;59654;52.216;5.616;2022-12-01T04:18:18;102623.88;;;4.23;96.09
71805;BME280;59654;52.216;5.616;2022-12-01T04:19:10;102626.53;;;4.24;95.80
71805;BME280;59654;52.216;5.616;2022-12-01T04:19:53;102623.00;;;4.24;96.28
71805;BME280;59654;52.216;5.616;2022-12-01T04:20:38;102624.75;;;4.23;95.58
71805;BME280;59654;52.216;5.616;2022-12-01T04:21:18;102630.06;;;4.25;95.41
71805;BME280;59654;52.216;5.616;2022-12-01T04:21:57;102624.81;;;4.26;95.21
71805;BME280;59654;52.216;5.616;2022-12-01T04:22:33;102623.94;;;4.26;95.74
71805;BME280;59654;52.216;5.616;2022-12-01T04:23:07;102625.66;;;4.24;95.10
71805;BME280;59654;52.216;5.616;2022-12-01T04:23:46;102627.44;;;4.25;95.32
71805;BME280;59654;52.216;5.616;2022-12-01T04:24:32;102624.81;;;4.26;95.49
71805;BME280;59654;52.216;5.616;2022-12-01T04:25:04;102616.91;;;4.26;95.34
71805;BME280;59654;52.216;5.616;2022-12-01T04:25:41;102632.78;;;4.28;95.58
71805;BME280;59654;52.216;5.616;2022-12-01T04:26:45;102620.44;;;4.27;95.51
71805;BME280;59654;52.216;5.616;2022-12-01T04:27:16;102629.28;;;4.29;95.53
71805;BME280;59654;52.216;5.616;2022-12-01T04:28:16;102628.41;;;4.30;95.65
71805;BME280;59654;52.216;5.616;2022-12-01T04:28:50;102624.88;;;4.31;95.64
71805;BME280;59654;52.216;5.616;2022-12-01T04:29:39;102624.91;;;4.32;95.57
71805;BME280;59654;52.216;5.616;2022-12-01T04:30:21;102629.28;;;4.32;95.62
71805;BME280;59654;52.216;5.616;2022-12-01T04:31:02;102624.03;;;4.33;95.49
71805;BME280;59654;52.216;5.616;2022-12-01T04:31:37;102618.72;;;4.32;95.40
71805;BME280;59654;52.216;5.616;2022-12-01T04:32:16;102618.72;;;4.32;95.17
71805;BME280;59654;52.216;5.616;2022-12-01T04:32:51;102617.84;;;4.31;95.19
71805;BME280;59654;52.216;5.616;2022-12-01T04:33:49;102620.47;;;4.31;95.44
71805;BME280;59654;52.216;5.616;2022-12-01T04:34:23;102619.59;;;4.31;95.85
71805;BME280;59654;52.216;5.616;2022-12-01T04:35:00;102624.88;;;4.31;95.38
71805;BME280;59654;52.216;5.616;2022-12-01T04:35:38;102625.78;;;4.33;95.25
71805;BME280;59654;52.216;5.616;2022-12-01T04:36:20;102629.31;;;4.33;95.38
71805;BME280;59654;52.216;5.616;2022-12-01T04:36:56;102625.84;;;4.36;94.84
71805;BME280;59654;52.216;5.616;2022-12-01T04:37:27;102628.50;;;4.36;95.44
71805;BME280;59654;52.216;5.616;2022-12-01T04:38:10;102627.59;;;4.35;94.67
71805;BME280;59654;52.216;5.616;2022-12-01T04:38:51;102627.56;;;4.34;94.36
71805;BME280;59654;52.216;5.616;2022-12-01T04:39:22;102623.22;;;4.36;94.48
71805;BME280;59654;52.216;5.616;2022-12-01T04:40:24;102625.88;;;4.37;94.74
71805;BME280;59654;52.216;5.616;2022-12-01T04:41:28;102620.63;;;4.39;94.74
71805;BME280;59654;52.216;5.616;2022-12-01T04:41:59;102623.22;;;4.37;94.60
71805;BME280;59654;52.216;5.616;2022-12-01T04:42:40;102629.41;;;4.38;94.66
71805;BME280;59654;52.216;5.616;2022-12-01T04:43:14;102625.91;;;4.39;94.44
71805;BME280;59654;52.216;5.616;2022-12-01T04:43:47;102626.75;;;4.38;94.44
71805;BME280;59654;52.216;5.616;2022-12-01T04:44:41;102632.94;;;4.38;94.86
71805;BME280;59654;52.216;5.616;2022-12-01T04:45:33;102625.00;;;4.38;95.07
71805;BME280;59654;52.216;5.616;2022-12-01T04:46:38;102632.00;;;4.35;94.75
71805;BME280;59654;52.216;5.616;2022-12-01T04:47:15;102634.59;;;4.33;94.96
71805;BME280;59654;52.216;5.616;2022-12-01T04:48:09;102645.13;;;4.32;94.72
71805;BME280;59654;52.216;5.616;2022-12-01T04:48:51;102633.63;;;4.27;94.09
71805;BME280;59654;52.216;5.616;2022-12-01T04:49:57;102629.94;;;4.17;94.27
71805;BME280;59654;52.216;5.616;2022-12-01T04:50:49;102626.22;;;4.06;95.17
71805;BME280;59654;52.216;5.616;2022-12-01T04:51:40;102627.06;;;4.03;96.08
71805;BME280;59654;52.216;5.616;2022-12-01T04:52:20;102632.31;;;4.02;96.41
71805;BME280;59654;52.216;5.616;2022-12-01T04:52:56;102632.28;;;4.00;96.73
71805;BME280;59654;52.216;5.616;2022-12-01T04:53:38;102631.41;;;4.01;96.97
71805;BME280;59654;52.216;5.616;2022-12-01T04:54:21;102635.88;;;4.04;96.87